< < Back
Terminal Aerodrome Forecast


Current Version              Previous Versions:   1  2  3  4  5  6  7  8  9  

Terminal Aerodrome Forecast

303
FTUS42 KCHS 270500
TAFSAV
TAF
KSAV 270521Z 2706/2806 00000KT 6SM BCFG SKC
      TEMPO 2706/2709 4SM BCFG
     FM270900 00000KT 2SM BCFG FEW250
     FM271300 VRB03KT P6SM SCT025 SCT150
     FM272100 VRB03KT P6SM SCT025 BKN100=

Latest METAR

886
SAUS80 KWBC 270758
MTRSAV
METAR KSAV 270753Z AUTO 00000KT 2 1/2SM MIFG CLR 06/05 A3028 RMK AO2
SLP252 T00560050 TSNO


USA.gov is the U.S. government's official web portal to all federal, state and local government web resources and services.